Time;durP1;ratioP1;P1;durP2;ratioP2;P2;SDS_P1;SDS_P2;PMS_P1;PMS_P2;Temp;Humidity;BMP_temperature;BMP_pressure;BME280_temperature;BME280_humidity;BME280_pressure;Samples;Min_cycle;Max_cycle;Signal;HPM_P1;HPM_P2
2023/08/14 00:00:55;;;;;;;7.13;4.10;;;;;;;;;;5093521;28;20812;-54
2023/08/14 00:03:22;;;;;;;5.57;4.03;;;;;;;;;;5087982;28;20439;-55
2023/08/14 00:05:50;;;;;;;4.77;3.57;;;;;;;;;;5081097;28;20448;-55
2023/08/14 00:08:17;;;;;;;6.37;3.80;;;;;;;;;;5092707;28;20978;-56
2023/08/14 00:10:44;;;;;;;6.60;4.47;;;;;;;;;;5091945;28;20833;-55
2023/08/14 00:13:11;;;;;;;6.57;3.87;;;;;;;;;;5091782;28;20479;-53
2023/08/14 00:15:40;;;;;;;6.60;3.83;;;;;;;;;;5091981;28;20547;-53
2023/08/14 00:18:07;;;;;;;5.43;4.23;;;;;;;;;;5092061;28;20475;-54
2023/08/14 00:20:35;;;;;;;5.30;4.27;;;;;;;;;;5091575;28;20475;-53
2023/08/14 00:23:02;;;;;;;4.60;4.10;;;;;;;;;;5092341;28;20897;-53
2023/08/14 00:25:29;;;;;;;4.60;2.97;;;;;;;;;;5092593;28;20487;-54
2023/08/14 00:27:56;;;;;;;6.10;3.60;;;;;;;;;;5093548;28;20436;-53
2023/08/14 00:30:24;;;;;;;6.83;4.13;;;;;;;;;;5092375;28;20468;-53
2023/08/14 00:32:52;;;;;;;6.23;3.50;;;;;;;;;;5093076;28;20461;-53
2023/08/14 00:35:19;;;;;;;4.30;3.90;;;;;;;;;;5093269;28;20588;-53
2023/08/14 00:37:47;;;;;;;4.60;3.97;;;;;;;;;;5092757;28;20549;-54
2023/08/14 00:40:15;;;;;;;4.90;4.20;;;;;;;;;;5093350;28;20523;-55
2023/08/14 00:42:45;;;;;;;6.80;3.60;;;;;;;;;;5092980;28;20497;-53
2023/08/14 00:45:12;;;;;;;6.53;4.20;;;;;;;;;;5092843;28;20542;-54
2023/08/14 00:47:41;;;;;;;6.10;4.00;;;;;;;;;;5092701;28;20861;-54
2023/08/14 00:50:10;;;;;;;8.87;4.50;;;;;;;;;;5092920;28;20474;-56
2023/08/14 00:52:39;;;;;;;5.63;4.07;;;;;;;;;;5093133;28;21049;-54
2023/08/14 00:55:08;;;;;;;6.30;4.33;;;;;;;;;;5092611;28;20552;-53
2023/08/14 00:57:36;;;;;;;6.63;4.20;;;;;;;;;;5092698;28;21022;-54
2023/08/14 01:00:05;;;;;;;4.60;3.53;;;;;;;;;;5092710;28;20439;-55
2023/08/14 01:02:32;;;;;;;5.77;3.80;;;;;;;;;;5092729;28;20505;-54
2023/08/14 01:05:00;;;;;;;4.80;3.67;;;;;;;;;;5092088;28;20471;-55
2023/08/14 01:07:29;;;;;;;6.17;4.03;;;;;;;;;;5092381;28;20495;-55
2023/08/14 01:09:57;;;;;;;6.13;3.97;;;;;;;;;;5092765;28;20447;-55
2023/08/14 01:12:27;;;;;;;4.83;4.30;;;;;;;;;;5092506;28;20783;-53
2023/08/14 01:14:57;;;;;;;10.20;4.23;;;;;;;;;;5092353;28;20553;-53
2023/08/14 01:17:27;;;;;;;4.90;4.07;;;;;;;;;;5091953;28;20529;-53
2023/08/14 01:19:56;;;;;;;5.90;4.10;;;;;;;;;;5091522;28;20886;-53
2023/08/14 01:22:29;;;;;;;6.90;4.50;;;;;;;;;;5091731;28;20968;-54
2023/08/14 01:25:05;;;;;;;4.80;3.47;;;;;;;;;;5091271;28;20427;-53
2023/08/14 01:27:32;;;;;;;5.10;3.70;;;;;;;;;;5091684;28;20630;-53
2023/08/14 01:30:00;;;;;;;6.67;3.73;;;;;;;;;;5090850;28;20475;-54
2023/08/14 01:32:28;;;;;;;4.40;4.00;;;;;;;;;;5092217;28;20881;-53
2023/08/14 01:34:56;;;;;;;5.60;4.43;;;;;;;;;;5092049;28;20468;-54
2023/08/14 01:37:27;;;;;;;5.70;4.37;;;;;;;;;;5091767;28;20467;-53
2023/08/14 01:39:57;;;;;;;7.30;4.43;;;;;;;;;;5092091;28;20472;-54
2023/08/14 01:42:29;;;;;;;6.90;4.10;;;;;;;;;;5092089;28;20538;-56
2023/08/14 01:45:01;;;;;;;4.50;3.83;;;;;;;;;;5091846;28;20957;-53
2023/08/14 01:47:30;;;;;;;6.40;4.10;;;;;;;;;;5091558;28;20436;-53
2023/08/14 01:49:58;;;;;;;3.77;3.37;;;;;;;;;;5092069;28;20467;-53
2023/08/14 01:52:25;;;;;;;4.90;3.93;;;;;;;;;;5091745;28;20440;-53
2023/08/14 01:54:52;;;;;;;4.33;3.80;;;;;;;;;;5091796;28;21071;-53
2023/08/14 01:57:20;;;;;;;8.30;4.03;;;;;;;;;;5090688;28;20467;-54
2023/08/14 01:59:48;;;;;;;10.83;4.87;;;;;;;;;;5091584;28;20475;-54
2023/08/14 02:02:16;;;;;;;5.03;3.90;;;;;;;;;;5091279;28;20527;-54
2023/08/14 02:04:43;;;;;;;6.67;4.17;;;;;;;;;;5091820;28;20471;-55
2023/08/14 02:07:10;;;;;;;5.40;3.93;;;;;;;;;;5091702;28;20463;-53
2023/08/14 02:09:38;;;;;;;7.73;3.87;;;;;;;;;;5091617;28;20449;-55
2023/08/14 02:12:05;;;;;;;3.80;3.40;;;;;;;;;;5091076;28;20435;-55
2023/08/14 02:14:32;;;;;;;5.93;4.60;;;;;;;;;;5090461;28;20519;-57
2023/08/14 02:17:01;;;;;;;4.50;3.80;;;;;;;;;;5091393;28;20487;-56
2023/08/14 02:19:28;;;;;;;4.63;4.13;;;;;;;;;;5090366;28;20493;-56
2023/08/14 02:21:55;;;;;;;5.10;3.80;;;;;;;;;;5076457;28;20523;-54
2023/08/14 02:24:23;;;;;;;4.80;3.80;;;;;;;;;;5074960;28;20501;-53
2023/08/14 02:26:50;;;;;;;5.00;3.40;;;;;;;;;;5120454;22;20487;-86
2023/08/14 02:29:17;;;;;;;4.77;3.80;;;;;;;;;;5110361;28;20443;-91
2023/08/14 02:31:46;;;;;;;6.53;4.03;;;;;;;;;;5098013;28;20432;-86
2023/08/14 02:34:32;;;;;;;5.70;3.37;;;;;;;;;;5093864;28;20497;-87
2023/08/14 02:36:59;;;;;;;4.60;3.87;;;;;;;;;;5085531;28;20440;-87
2023/08/14 02:39:26;;;;;;;4.07;3.53;;;;;;;;;;5114030;22;20611;-53
2023/08/14 02:41:54;;;;;;;3.90;3.50;;;;;;;;;;5110971;28;20500;-53
2023/08/14 02:44:21;;;;;;;9.77;4.13;;;;;;;;;;5110899;28;20481;-54
2023/08/14 02:46:48;;;;;;;6.83;4.13;;;;;;;;;;5111263;28;20487;-54
2023/08/14 02:49:17;;;;;;;4.47;3.40;;;;;;;;;;5110427;28;20474;-55
2023/08/14 02:51:44;;;;;;;4.30;3.57;;;;;;;;;;5106634;28;20482;-55
2023/08/14 02:54:11;;;;;;;4.37;3.97;;;;;;;;;;5090709;28;21005;-54
2023/08/14 02:56:38;;;;;;;5.60;3.63;;;;;;;;;;5090661;28;20986;-55
2023/08/14 02:59:06;;;;;;;4.93;3.60;;;;;;;;;;5091466;28;20807;-54
2023/08/14 03:01:33;;;;;;;4.67;3.67;;;;;;;;;;5110186;28;20928;-55
2023/08/14 03:04:00;;;;;;;5.80;4.03;;;;;;;;;;5110979;28;20518;-57
2023/08/14 03:06:31;;;;;;;5.60;4.70;;;;;;;;;;5109534;28;20482;-55
2023/08/14 03:08:58;;;;;;;4.00;3.60;;;;;;;;;;5110824;28;20444;-54
2023/08/14 03:11:25;;;;;;;5.03;3.63;;;;;;;;;;5110301;28;21010;-52
2023/08/14 03:13:52;;;;;;;6.33;4.80;;;;;;;;;;5096166;28;20925;-55
2023/08/14 03:16:20;;;;;;;4.30;3.80;;;;;;;;;;5106721;28;20558;-54
2023/08/14 03:18:47;;;;;;;6.00;3.87;;;;;;;;;;5110254;28;20630;-55
2023/08/14 03:21:14;;;;;;;4.20;3.80;;;;;;;;;;5110137;28;20434;-57
2023/08/14 03:23:44;;;;;;;6.73;3.83;;;;;;;;;;5094904;28;20462;-54
2023/08/14 03:26:14;;;;;;;7.20;4.40;;;;;;;;;;5107644;28;20463;-53
2023/08/14 03:28:41;;;;;;;6.50;3.60;;;;;;;;;;5113377;28;20447;-54
2023/08/14 03:31:08;;;;;;;5.10;3.97;;;;;;;;;;5113775;28;20518;-54
2023/08/14 03:33:35;;;;;;;6.40;3.47;;;;;;;;;;5113618;28;20795;-55
2023/08/14 03:36:03;;;;;;;5.30;3.87;;;;;;;;;;5113723;28;20992;-55
2023/08/14 03:38:31;;;;;;;4.60;3.60;;;;;;;;;;5113916;28;20526;-55
2023/08/14 03:41:00;;;;;;;4.37;3.97;;;;;;;;;;5113114;28;20489;-53
2023/08/14 03:43:27;;;;;;;5.30;3.90;;;;;;;;;;5109133;28;20473;-53
2023/08/14 03:45:54;;;;;;;5.50;4.03;;;;;;;;;;5113678;28;20451;-54
2023/08/14 03:48:21;;;;;;;4.20;3.80;;;;;;;;;;5103400;28;20435;-55
2023/08/14 03:50:49;;;;;;;4.03;3.63;;;;;;;;;;5092416;28;20479;-54
2023/08/14 03:53:16;;;;;;;4.63;3.13;;;;;;;;;;5093138;28;20475;-54
2023/08/14 03:55:43;;;;;;;4.60;4.00;;;;;;;;;;5092673;28;20561;-55
2023/08/14 03:58:12;;;;;;;7.00;4.10;;;;;;;;;;5092581;28;20439;-55
2023/08/14 04:00:39;;;;;;;4.47;3.63;;;;;;;;;;5104392;28;20485;-55
2023/08/14 04:03:06;;;;;;;4.40;3.90;;;;;;;;;;5113291;28;20474;-54
2023/08/14 04:05:37;;;;;;;6.33;4.10;;;;;;;;;;5112991;28;20482;-54
2023/08/14 04:08:05;;;;;;;3.80;3.20;;;;;;;;;;5113098;28;20950;-55
2023/08/14 04:10:32;;;;;;;4.93;4.23;;;;;;;;;;5113059;28;20438;-54
2023/08/14 04:12:59;;;;;;;6.73;3.73;;;;;;;;;;5112973;28;20488;-54
2023/08/14 04:15:28;;;;;;;7.80;4.07;;;;;;;;;;5112573;28;20509;-54
2023/08/14 04:17:55;;;;;;;4.50;3.63;;;;;;;;;;5113559;28;20512;-56
2023/08/14 04:20:22;;;;;;;4.77;4.03;;;;;;;;;;5111930;28;20495;-54
2023/08/14 04:22:50;;;;;;;5.17;4.20;;;;;;;;;;5093878;28;20432;-54
2023/08/14 04:25:18;;;;;;;5.63;3.53;;;;;;;;;;5097656;28;20841;-54
2023/08/14 04:27:46;;;;;;;5.47;3.67;;;;;;;;;;5112525;28;20474;-54
2023/08/14 04:30:13;;;;;;;4.23;3.80;;;;;;;;;;5112826;28;20534;-55
2023/08/14 04:32:42;;;;;;;4.03;3.50;;;;;;;;;;5112672;28;20684;-54
2023/08/14 04:35:10;;;;;;;5.03;3.97;;;;;;;;;;5112675;28;20936;-54
2023/08/14 04:37:37;;;;;;;8.03;4.37;;;;;;;;;;5111926;28;20551;-55
2023/08/14 04:40:05;;;;;;;4.20;3.60;;;;;;;;;;5111477;28;20456;-55
2023/08/14 04:42:33;;;;;;;7.67;4.00;;;;;;;;;;5112041;28;20446;-54
2023/08/14 04:45:00;;;;;;;6.17;4.17;;;;;;;;;;5112535;28;20438;-56
2023/08/14 04:47:28;;;;;;;6.07;4.30;;;;;;;;;;5112518;28;20451;-54
2023/08/14 04:49:56;;;;;;;4.20;3.47;;;;;;;;;;5111671;28;20461;-54
2023/08/14 04:52:24;;;;;;;4.47;3.77;;;;;;;;;;5112392;28;20477;-55
2023/08/14 04:54:51;;;;;;;4.57;3.50;;;;;;;;;;5112379;28;20495;-54
2023/08/14 04:57:18;;;;;;;4.70;4.20;;;;;;;;;;5111607;28;20569;-53
2023/08/14 04:59:46;;;;;;;5.47;4.10;;;;;;;;;;5112386;28;20818;-55
2023/08/14 05:02:13;;;;;;;3.53;3.20;;;;;;;;;;5112169;28;20469;-54
2023/08/14 05:04:40;;;;;;;6.00;4.20;;;;;;;;;;5112221;28;20483;-56
2023/08/14 05:07:09;;;;;;;4.23;3.43;;;;;;;;;;5112052;28;20493;-56
2023/08/14 05:09:36;;;;;;;4.27;3.87;;;;;;;;;;5112131;28;20498;-56
2023/08/14 05:12:03;;;;;;;4.20;3.80;;;;;;;;;;5111751;28;20521;-56
2023/08/14 05:14:31;;;;;;;5.23;3.90;;;;;;;;;;5111991;28;20434;-56
2023/08/14 05:16:58;;;;;;;12.23;7.93;;;;;;;;;;5112054;28;20474;-56
2023/08/14 05:19:25;;;;;;;4.70;4.30;;;;;;;;;;5111150;28;20474;-55
2023/08/14 05:21:52;;;;;;;5.00;4.40;;;;;;;;;;5111660;28;20435;-54
2023/08/14 05:24:21;;;;;;;5.53;3.97;;;;;;;;;;5111664;28;20556;-54
2023/08/14 05:26:48;;;;;;;6.00;4.30;;;;;;;;;;5111764;28;20834;-56
2023/08/14 05:29:15;;;;;;;6.43;4.37;;;;;;;;;;5112685;28;20477;-56
2023/08/14 05:31:43;;;;;;;6.20;4.27;;;;;;;;;;5112437;28;20517;-54
2023/08/14 05:34:10;;;;;;;9.53;4.13;;;;;;;;;;5112349;28;20533;-54
2023/08/14 05:36:37;;;;;;;4.93;4.43;;;;;;;;;;5111845;28;20510;-55
2023/08/14 05:39:05;;;;;;;6.70;4.03;;;;;;;;;;5112117;28;20479;-56
2023/08/14 05:41:34;;;;;;;5.40;3.90;;;;;;;;;;5111815;28;21078;-54
2023/08/14 05:44:01;;;;;;;4.50;4.10;;;;;;;;;;5112357;28;20466;-55
2023/08/14 05:46:28;;;;;;;5.60;4.23;;;;;;;;;;5112091;28;20538;-55
2023/08/14 05:48:56;;;;;;;5.20;3.80;;;;;;;;;;5111981;28;20439;-53
2023/08/14 05:51:23;;;;;;;4.10;3.57;;;;;;;;;;5111789;28;20442;-54
2023/08/14 05:53:50;;;;;;;4.87;4.37;;;;;;;;;;5112499;28;20471;-55
2023/08/14 05:56:17;;;;;;;5.13;3.67;;;;;;;;;;5111956;28;20565;-54
2023/08/14 05:58:46;;;;;;;5.37;4.27;;;;;;;;;;5111287;28;20466;-54
2023/08/14 06:01:14;;;;;;;5.63;4.67;;;;;;;;;;5102840;28;20934;-55
2023/08/14 06:03:41;;;;;;;5.70;4.60;;;;;;;;;;5101596;28;20438;-55
2023/08/14 06:06:09;;;;;;;4.93;4.50;;;;;;;;;;5111904;28;20542;-56
2023/08/14 06:08:36;;;;;;;8.23;4.30;;;;;;;;;;5110637;28;20530;-56
2023/08/14 06:11:03;;;;;;;6.73;4.70;;;;;;;;;;5108906;28;20487;-54
2023/08/14 06:13:31;;;;;;;4.93;3.83;;;;;;;;;;5110550;28;20643;-56
2023/08/14 06:16:00;;;;;;;5.40;4.90;;;;;;;;;;5110238;28;20475;-56
2023/08/14 06:18:27;;;;;;;5.83;5.00;;;;;;;;;;5107279;28;20714;-56
2023/08/14 06:20:54;;;;;;;5.87;4.10;;;;;;;;;;5101938;28;20530;-54
2023/08/14 06:23:21;;;;;;;6.70;5.43;;;;;;;;;;5111367;28;20443;-54
2023/08/14 06:25:49;;;;;;;6.63;4.90;;;;;;;;;;5111637;28;20439;-54
2023/08/14 06:28:16;;;;;;;4.90;4.20;;;;;;;;;;5110360;28;20442;-55
2023/08/14 06:30:43;;;;;;;5.43;4.33;;;;;;;;;;5110950;28;20511;-55
2023/08/14 06:33:12;;;;;;;4.43;3.80;;;;;;;;;;5106961;28;20801;-55
2023/08/14 06:35:39;;;;;;;6.13;4.20;;;;;;;;;;5110365;28;20454;-55
2023/08/14 06:38:06;;;;;;;3.80;3.40;;;;;;;;;;5110289;28;20509;-55
2023/08/14 06:40:34;;;;;;;5.37;4.70;;;;;;;;;;5110145;28;20876;-56
2023/08/14 06:43:02;;;;;;;5.20;3.80;;;;;;;;;;5110497;28;20463;-55
2023/08/14 06:45:30;;;;;;;4.57;4.17;;;;;;;;;;5111255;28;20430;-56
2023/08/14 06:47:57;;;;;;;3.80;3.50;;;;;;;;;;5111327;28;20450;-55
2023/08/14 06:50:26;;;;;;;4.77;3.60;;;;;;;;;;5108288;28;20488;-55
2023/08/14 06:52:53;;;;;;;7.07;4.77;;;;;;;;;;5110070;28;20511;-54
2023/08/14 06:55:21;;;;;;;4.73;4.10;;;;;;;;;;5110771;28;20925;-55
2023/08/14 06:57:48;;;;;;;5.27;4.47;;;;;;;;;;5109666;28;20500;-55
2023/08/14 07:00:15;;;;;;;10.03;5.00;;;;;;;;;;5110476;28;20886;-55
2023/08/14 07:02:45;;;;;;;5.47;4.20;;;;;;;;;;5110306;28;20526;-56
2023/08/14 07:05:12;;;;;;;4.80;4.40;;;;;;;;;;5108319;28;20529;-55
2023/08/14 07:07:41;;;;;;;4.83;4.43;;;;;;;;;;5110582;28;20533;-55
2023/08/14 07:10:09;;;;;;;5.50;5.00;;;;;;;;;;5109725;28;20439;-56
2023/08/14 07:12:36;;;;;;;4.30;3.90;;;;;;;;;;5110702;28;20427;-54
2023/08/14 07:15:08;;;;;;;6.07;4.53;;;;;;;;;;5110806;28;20482;-55
2023/08/14 07:17:35;;;;;;;5.40;4.67;;;;;;;;;;5108535;28;21025;-56
2023/08/14 07:20:04;;;;;;;5.60;4.87;;;;;;;;;;5110135;28;20427;-56
2023/08/14 07:22:31;;;;;;;6.93;5.30;;;;;;;;;;5107843;28;20920;-56
2023/08/14 07:25:00;;;;;;;6.00;4.93;;;;;;;;;;5110549;28;20427;-55
2023/08/14 07:27:27;;;;;;;6.10;4.37;;;;;;;;;;5110147;28;20813;-54
2023/08/14 07:29:55;;;;;;;5.97;4.77;;;;;;;;;;5108846;28;20474;-55
2023/08/14 07:32:22;;;;;;;5.30;4.50;;;;;;;;;;5109408;28;20477;-56
2023/08/14 07:34:49;;;;;;;5.90;5.30;;;;;;;;;;5109807;28;20478;-55
2023/08/14 07:37:17;;;;;;;6.07;4.70;;;;;;;;;;5109801;28;20474;-55
2023/08/14 07:39:44;;;;;;;5.83;4.73;;;;;;;;;;5110345;28;20445;-56
2023/08/14 07:42:13;;;;;;;5.17;4.67;;;;;;;;;;5106719;28;20430;-55
2023/08/14 07:44:40;;;;;;;6.80;4.87;;;;;;;;;;5108391;28;20463;-54
2023/08/14 07:47:07;;;;;;;5.00;4.40;;;;;;;;;;5110188;28;20454;-56
2023/08/14 07:49:34;;;;;;;4.73;4.30;;;;;;;;;;5110716;28;20513;-57
2023/08/14 07:52:02;;;;;;;6.07;4.40;;;;;;;;;;5110491;28;20509;-56
2023/08/14 07:54:29;;;;;;;5.10;4.30;;;;;;;;;;5109946;28;20430;-55
2023/08/14 07:56:56;;;;;;;5.43;4.90;;;;;;;;;;5110103;28;20569;-55
2023/08/14 07:59:25;;;;;;;5.77;4.10;;;;;;;;;;5109420;28;20858;-55
2023/08/14 08:01:52;;;;;;;5.10;3.70;;;;;;;;;;5110299;28;20487;-55
2023/08/14 08:04:19;;;;;;;5.50;4.43;;;;;;;;;;5110547;28;20511;-56
2023/08/14 08:06:47;;;;;;;4.70;4.30;;;;;;;;;;5109815;28;20577;-54
2023/08/14 08:09:15;;;;;;;4.70;4.17;;;;;;;;;;5104506;28;20454;-55
2023/08/14 08:11:42;;;;;;;5.20;4.70;;;;;;;;;;5106924;28;20921;-55
2023/08/14 08:14:09;;;;;;;5.70;4.47;;;;;;;;;;5109103;28;20519;-55
2023/08/14 08:16:38;;;;;;;4.53;4.13;;;;;;;;;;5110834;28;20604;-56
2023/08/14 08:19:06;;;;;;;5.90;4.13;;;;;;;;;;5110836;28;20442;-56
2023/08/14 08:21:34;;;;;;;6.00;4.83;;;;;;;;;;5107683;28;20483;-55
2023/08/14 08:24:01;;;;;;;5.40;4.90;;;;;;;;;;5110364;28;20496;-56
2023/08/14 08:26:28;;;;;;;6.00;5.50;;;;;;;;;;5121642;22;20487;-57
2023/08/14 08:28:55;;;;;;;8.63;5.00;;;;;;;;;;5089734;28;21020;-56
2023/08/14 08:31:23;;;;;;;5.60;5.10;;;;;;;;;;5088949;28;20930;-57
2023/08/14 08:33:51;;;;;;;7.00;5.97;;;;;;;;;;5089407;28;20750;-57
2023/08/14 08:36:18;;;;;;;6.10;5.53;;;;;;;;;;5089927;28;21044;-57
2023/08/14 08:38:46;;;;;;;6.00;5.50;;;;;;;;;;5087135;28;20458;-58
2023/08/14 08:41:14;;;;;;;5.80;5.20;;;;;;;;;;5087650;28;20451;-56
2023/08/14 08:43:42;;;;;;;5.70;5.20;;;;;;;;;;5088757;28;20531;-55
2023/08/14 08:46:12;;;;;;;6.60;5.27;;;;;;;;;;5088842;28;20546;-57
2023/08/14 08:48:43;;;;;;;5.70;5.10;;;;;;;;;;5086109;28;20475;-58
2023/08/14 08:51:12;;;;;;;6.27;4.80;;;;;;;;;;5089718;28;20444;-58
2023/08/14 08:53:40;;;;;;;6.80;5.40;;;;;;;;;;5089626;28;20526;-57
2023/08/14 08:56:07;;;;;;;5.63;4.70;;;;;;;;;;5090364;28;20443;-56
2023/08/14 08:58:35;;;;;;;7.37;4.90;;;;;;;;;;5088563;28;20503;-57
2023/08/14 09:01:02;;;;;;;5.27;4.77;;;;;;;;;;5076320;28;20468;-57
2023/08/14 09:03:30;;;;;;;5.83;5.07;;;;;;;;;;5075964;28;20439;-57
2023/08/14 09:05:57;;;;;;;6.27;5.00;;;;;;;;;;5088097;28;20510;-58
2023/08/14 09:08:26;;;;;;;5.47;4.97;;;;;;;;;;5082700;28;20542;-58
2023/08/14 09:10:53;;;;;;;6.33;5.70;;;;;;;;;;5077209;28;20519;-57
2023/08/14 09:13:20;;;;;;;6.07;5.23;;;;;;;;;;5081252;28;20539;-57
2023/08/14 09:15:48;;;;;;;5.97;5.47;;;;;;;;;;5088382;28;20513;-57
2023/08/14 09:18:15;;;;;;;5.63;5.13;;;;;;;;;;5084878;28;20518;-57
2023/08/14 09:20:42;;;;;;;6.90;5.63;;;;;;;;;;5088520;28;20467;-56
2023/08/14 09:23:12;;;;;;;5.30;4.80;;;;;;;;;;5079914;28;20531;-58
2023/08/14 09:25:41;;;;;;;5.70;5.20;;;;;;;;;;5084364;28;20866;-57
2023/08/14 09:28:09;;;;;;;6.17;5.67;;;;;;;;;;5086429;28;20512;-57
2023/08/14 09:30:37;;;;;;;5.97;5.37;;;;;;;;;;5076195;28;20478;-56
2023/08/14 09:33:08;;;;;;;5.90;5.27;;;;;;;;;;5084601;28;20840;-57
2023/08/14 09:35:35;;;;;;;5.37;4.87;;;;;;;;;;5085393;28;21031;-57
2023/08/14 09:38:02;;;;;;;6.40;4.90;;;;;;;;;;5085977;28;20601;-57
2023/08/14 09:40:30;;;;;;;5.00;4.50;;;;;;;;;;5086189;28;20979;-58
2023/08/14 09:42:59;;;;;;;5.70;5.10;;;;;;;;;;5086597;28;20804;-57
2023/08/14 09:45:28;;;;;;;5.70;5.20;;;;;;;;;;5086560;28;20938;-57
2023/08/14 09:48:00;;;;;;;5.60;5.10;;;;;;;;;;5085953;28;20469;-57
2023/08/14 09:50:29;;;;;;;5.60;4.90;;;;;;;;;;5085103;28;20440;-57
2023/08/14 09:52:57;;;;;;;5.33;4.83;;;;;;;;;;5085827;28;20432;-58
2023/08/14 09:55:26;;;;;;;6.27;5.03;;;;;;;;;;5078436;28;20804;-57
2023/08/14 09:57:54;;;;;;;6.10;4.50;;;;;;;;;;5079421;28;20852;-57
2023/08/14 10:00:23;;;;;;;6.30;4.73;;;;;;;;;;5082768;28;20495;-57
2023/08/14 10:02:50;;;;;;;5.40;4.90;;;;;;;;;;5081268;28;20455;-57
2023/08/14 10:05:19;;;;;;;4.33;3.93;;;;;;;;;;5079677;28;20491;-56
2023/08/14 10:07:46;;;;;;;6.40;5.00;;;;;;;;;;5083384;28;21012;-56
2023/08/14 10:10:14;;;;;;;5.53;5.00;;;;;;;;;;5071980;28;20903;-57
2023/08/14 10:12:44;;;;;;;5.37;4.43;;;;;;;;;;5071659;28;20528;-58
2023/08/14 10:15:13;;;;;;;5.70;4.80;;;;;;;;;;5070582;28;20528;-58
2023/08/14 10:17:45;;;;;;;5.50;5.00;;;;;;;;;;5070909;28;20545;-56
2023/08/14 10:20:13;;;;;;;5.43;4.40;;;;;;;;;;5070440;28;20491;-57
2023/08/14 10:22:41;;;;;;;5.43;4.93;;;;;;;;;;5088811;28;20439;-57
2023/08/14 10:25:09;;;;;;;4.83;4.33;;;;;;;;;;5073247;28;20531;-57
2023/08/14 10:27:36;;;;;;;6.47;5.10;;;;;;;;;;5087988;28;20538;-58
2023/08/14 10:30:04;;;;;;;4.87;4.33;;;;;;;;;;5073925;28;20468;-57
2023/08/14 10:32:32;;;;;;;5.40;4.30;;;;;;;;;;5069737;28;20433;-56
2023/08/14 10:35:00;;;;;;;4.80;4.30;;;;;;;;;;5070417;28;20472;-57
2023/08/14 10:37:28;;;;;;;5.00;4.50;;;;;;;;;;5070423;28;20503;-57
2023/08/14 10:39:59;;;;;;;5.97;4.70;;;;;;;;;;5081105;28;20515;-57
2023/08/14 10:42:26;;;;;;;4.60;4.20;;;;;;;;;;5074047;28;20460;-57
2023/08/14 10:44:54;;;;;;;6.30;4.70;;;;;;;;;;5087273;28;20497;-57
2023/08/14 10:47:21;;;;;;;5.10;4.60;;;;;;;;;;5084758;28;20535;-57
2023/08/14 10:49:51;;;;;;;5.87;4.53;;;;;;;;;;5085199;28;20535;-56
2023/08/14 10:52:20;;;;;;;5.23;4.80;;;;;;;;;;5084758;28;20505;-58
2023/08/14 10:54:51;;;;;;;4.30;3.90;;;;;;;;;;5086699;28;20443;-57
2023/08/14 10:57:28;;;;;;;6.13;4.20;;;;;;;;;;5086164;28;20520;-56
2023/08/14 10:59:56;;;;;;;5.30;4.70;;;;;;;;;;5083532;28;20534;-56
2023/08/14 11:02:24;;;;;;;5.60;4.90;;;;;;;;;;5080570;28;21029;-57
2023/08/14 11:05:02;;;;;;;6.10;5.50;;;;;;;;;;5083012;28;20949;-57
2023/08/14 11:07:31;;;;;;;8.40;5.33;;;;;;;;;;5078276;28;20981;-58
2023/08/14 11:09:59;;;;;;;5.37;4.90;;;;;;;;;;5072282;28;20853;-58
2023/08/14 11:12:26;;;;;;;6.20;5.30;;;;;;;;;;5077368;28;20546;-57
2023/08/14 11:14:55;;;;;;;7.77;5.60;;;;;;;;;;5085870;28;20556;-56
2023/08/14 11:17:24;;;;;;;6.83;4.93;;;;;;;;;;5087963;28;20854;-57
2023/08/14 11:19:52;;;;;;;7.10;4.60;;;;;;;;;;5084479;28;20444;-57
2023/08/14 11:22:21;;;;;;;5.40;4.90;;;;;;;;;;5069776;28;20468;-58
2023/08/14 11:24:50;;;;;;;5.53;5.03;;;;;;;;;;5067313;28;20447;-58
2023/08/14 11:27:17;;;;;;;6.07;4.57;;;;;;;;;;5067250;28;20584;-58
2023/08/14 11:29:44;;;;;;;6.27;4.70;;;;;;;;;;5067604;28;20832;-57
2023/08/14 11:32:12;;;;;;;12.10;6.10;;;;;;;;;;5067044;28;20523;-57
2023/08/14 11:34:39;;;;;;;5.17;4.67;;;;;;;;;;5067792;28;20980;-56
2023/08/14 11:37:07;;;;;;;5.67;5.17;;;;;;;;;;5067001;28;20492;-57
2023/08/14 11:39:34;;;;;;;5.00;4.50;;;;;;;;;;5067450;28;20522;-56
2023/08/14 11:42:03;;;;;;;5.17;4.67;;;;;;;;;;5067409;28;20851;-57
2023/08/14 11:44:30;;;;;;;6.63;4.70;;;;;;;;;;5074277;28;20500;-57
2023/08/14 11:46:58;;;;;;;5.13;4.63;;;;;;;;;;5078789;28;21030;-58
2023/08/14 11:49:25;;;;;;;5.77;5.27;;;;;;;;;;5082442;28;20432;-59
2023/08/14 11:51:54;;;;;;;4.90;4.37;;;;;;;;;;5080686;28;21100;-57
2023/08/14 11:54:21;;;;;;;6.20;4.17;;;;;;;;;;5079931;28;20446;-57
2023/08/14 11:56:49;;;;;;;6.03;4.87;;;;;;;;;;5082107;28;21064;-56
2023/08/14 11:59:19;;;;;;;7.70;4.60;;;;;;;;;;5081920;28;20585;-57
2023/08/14 12:01:46;;;;;;;5.10;4.60;;;;;;;;;;5086649;28;20453;-56
2023/08/14 12:04:13;;;;;;;7.93;5.10;;;;;;;;;;5090426;28;20531;-57
2023/08/14 12:06:41;;;;;;;5.13;4.10;;;;;;;;;;5086186;28;20494;-55
2023/08/14 12:09:08;;;;;;;5.10;4.60;;;;;;;;;;5089050;28;20503;-57
2023/08/14 12:11:36;;;;;;;6.33;5.13;;;;;;;;;;5088660;28;20934;-57
2023/08/14 12:14:06;;;;;;;5.00;4.60;;;;;;;;;;5089472;28;20459;-57
2023/08/14 12:16:38;;;;;;;4.70;4.20;;;;;;;;;;5088772;28;20534;-57
2023/08/14 12:19:07;;;;;;;5.40;4.63;;;;;;;;;;5088930;28;20582;-57
2023/08/14 12:21:34;;;;;;;5.23;4.73;;;;;;;;;;5087445;28;20465;-56
2023/08/14 12:24:02;;;;;;;4.70;4.30;;;;;;;;;;5088906;28;20527;-57
2023/08/14 12:26:36;;;;;;;4.53;4.13;;;;;;;;;;5088051;28;20813;-57
2023/08/14 12:29:04;;;;;;;4.33;3.93;;;;;;;;;;5082117;28;20492;-58
2023/08/14 12:31:31;;;;;;;5.33;4.80;;;;;;;;;;5090281;28;20531;-58
2023/08/14 12:34:00;;;;;;;6.67;4.27;;;;;;;;;;5081984;28;20432;-56
2023/08/14 12:36:27;;;;;;;6.13;4.50;;;;;;;;;;5090487;28;20508;-56
2023/08/14 12:38:54;;;;;;;4.57;4.13;;;;;;;;;;5084134;28;20552;-55
2023/08/14 12:41:21;;;;;;;5.23;4.73;;;;;;;;;;5081213;28;20540;-56
2023/08/14 12:43:49;;;;;;;7.77;4.80;;;;;;;;;;5089684;28;20862;-56
2023/08/14 12:46:16;;;;;;;4.60;4.20;;;;;;;;;;5090110;28;20951;-57
2023/08/14 12:48:43;;;;;;;4.50;4.10;;;;;;;;;;5089535;28;20468;-56
2023/08/14 12:51:12;;;;;;;6.83;4.90;;;;;;;;;;5071299;28;20448;-58
2023/08/14 12:53:39;;;;;;;5.53;5.03;;;;;;;;;;5089601;28;20542;-56
2023/08/14 12:56:07;;;;;;;8.47;4.87;;;;;;;;;;5090156;28;20519;-55
2023/08/14 12:58:34;;;;;;;8.07;5.30;;;;;;;;;;5084778;28;20594;-56
2023/08/14 13:01:01;;;;;;;5.13;4.63;;;;;;;;;;5082933;28;20436;-56
2023/08/14 13:03:29;;;;;;;5.63;5.13;;;;;;;;;;5083705;28;20958;-57
2023/08/14 13:05:56;;;;;;;6.27;5.40;;;;;;;;;;5087106;28;20522;-56
2023/08/14 13:08:25;;;;;;;5.40;4.57;;;;;;;;;;5081596;28;20525;-57
2023/08/14 13:10:52;;;;;;;6.07;4.20;;;;;;;;;;5083476;28;20475;-56
2023/08/14 13:13:23;;;;;;;14.63;6.57;;;;;;;;;;5087224;28;20518;-58
2023/08/14 13:15:50;;;;;;;10.90;4.80;;;;;;;;;;5087246;28;20973;-55
2023/08/14 13:18:17;;;;;;;6.90;5.00;;;;;;;;;;5089396;28;20467;-58
2023/08/14 13:20:44;;;;;;;5.87;5.37;;;;;;;;;;5080609;28;20468;-58
2023/08/14 13:23:12;;;;;;;5.43;4.43;;;;;;;;;;5084820;28;20463;-57
2023/08/14 13:25:40;;;;;;;5.53;4.90;;;;;;;;;;5084490;28;20537;-59
2023/08/14 13:28:07;;;;;;;7.60;5.30;;;;;;;;;;5083236;28;20555;-58
2023/08/14 13:30:35;;;;;;;10.30;5.37;;;;;;;;;;5082169;28;20753;-57
2023/08/14 13:33:02;;;;;;;6.87;4.67;;;;;;;;;;5086371;28;20915;-56
2023/08/14 13:35:29;;;;;;;5.20;4.50;;;;;;;;;;5086157;28;20638;-56
2023/08/14 13:37:56;;;;;;;6.10;5.10;;;;;;;;;;5085583;28;20546;-56
2023/08/14 13:40:23;;;;;;;5.43;4.50;;;;;;;;;;5083437;28;20502;-58
2023/08/14 13:42:52;;;;;;;5.20;4.70;;;;;;;;;;5082909;28;20522;-56
2023/08/14 13:45:19;;;;;;;5.03;4.53;;;;;;;;;;5084855;28;20460;-56
2023/08/14 13:47:47;;;;;;;5.50;4.53;;;;;;;;;;5086940;28;20468;-58
2023/08/14 13:50:14;;;;;;;4.57;4.17;;;;;;;;;;5082823;28;20526;-56
2023/08/14 13:52:41;;;;;;;4.87;4.43;;;;;;;;;;5078942;28;20536;-57
2023/08/14 13:55:09;;;;;;;4.47;3.70;;;;;;;;;;5083190;28;20481;-55
2023/08/14 13:57:36;;;;;;;5.50;5.00;;;;;;;;;;5084282;28;20464;-57
2023/08/14 14:00:06;;;;;;;4.67;4.23;;;;;;;;;;5083704;28;20475;-58
2023/08/14 14:02:33;;;;;;;4.63;4.23;;;;;;;;;;5084822;28;20467;-57
2023/08/14 14:05:00;;;;;;;4.40;4.00;;;;;;;;;;5083087;28;21001;-56
2023/08/14 14:07:27;;;;;;;5.73;4.50;;;;;;;;;;5088220;28;20536;-58
2023/08/14 14:09:55;;;;;;;4.80;4.27;;;;;;;;;;5088058;28;20467;-57
2023/08/14 14:12:22;;;;;;;5.20;4.70;;;;;;;;;;5086971;28;20463;-58
2023/08/14 14:14:49;;;;;;;5.20;4.70;;;;;;;;;;5087475;28;20869;-58
2023/08/14 14:17:18;;;;;;;5.63;3.87;;;;;;;;;;5087609;28;20902;-58
2023/08/14 14:19:45;;;;;;;5.67;4.20;;;;;;;;;;5087825;28;20589;-57
2023/08/14 14:22:12;;;;;;;5.00;4.00;;;;;;;;;;5087514;28;21027;-59
2023/08/14 14:24:39;;;;;;;4.50;3.80;;;;;;;;;;5087353;28;20920;-58
2023/08/14 14:27:07;;;;;;;4.20;3.53;;;;;;;;;;5110101;22;20518;-56
2023/08/14 14:29:34;;;;;;;6.13;4.23;;;;;;;;;;5103375;28;20458;-56
2023/08/14 14:32:02;;;;;;;4.10;3.70;;;;;;;;;;5102593;28;20514;-55
2023/08/14 14:34:30;;;;;;;5.10;4.00;;;;;;;;;;5106191;28;20439;-55
2023/08/14 14:36:58;;;;;;;4.73;3.80;;;;;;;;;;5095376;28;20537;-56
2023/08/14 14:39:25;;;;;;;4.00;3.60;;;;;;;;;;5100943;28;20905;-55
2023/08/14 14:41:52;;;;;;;4.87;3.73;;;;;;;;;;5104126;28;20478;-56
2023/08/14 14:44:19;;;;;;;5.07;3.83;;;;;;;;;;5108002;28;20443;-56
2023/08/14 14:46:47;;;;;;;4.20;3.80;;;;;;;;;;5101579;28;20494;-56